createdAt,value
2022-09-07T00:00:45.502Z,5.95
2022-09-07T00:03:13.595Z,5.88
2022-09-07T00:05:44.966Z,6.00
2022-09-07T00:08:13.317Z,6.88
2022-09-07T00:10:41.339Z,5.90
2022-09-07T00:13:13.131Z,5.75
2022-09-07T00:15:41.474Z,7.53
2022-09-07T00:18:08.955Z,7.00
2022-09-07T00:23:23.990Z,6.05
2022-09-07T00:25:54.100Z,6.25
2022-09-07T00:28:28.312Z,6.53
2022-09-07T00:30:57.379Z,6.80
2022-09-07T00:36:28.371Z,6.65
2022-09-07T00:41:42.149Z,11.00
2022-09-07T00:44:45.639Z,8.60
2022-09-07T00:47:30.872Z,9.30
2022-09-07T01:08:49.901Z,8.90
2022-09-07T01:11:26.742Z,8.83
2022-09-07T01:13:58.028Z,9.13
2022-09-07T01:16:52.202Z,10.07
2022-09-07T01:19:45.001Z,10.40
2022-09-07T01:23:01.062Z,10.70
2022-09-07T01:31:49.114Z,11.40
2022-09-07T01:37:31.478Z,13.13
2022-09-07T01:40:10.601Z,12.33
2022-09-07T01:43:03.079Z,12.87
2022-09-07T01:48:38.741Z,12.80
2022-09-07T01:51:06.714Z,12.30
2022-09-07T01:53:52.569Z,12.20
2022-09-07T01:56:33.665Z,12.70
2022-09-07T01:59:16.776Z,11.97
2022-09-07T02:02:08.147Z,12.93
2022-09-07T02:04:43.461Z,12.53
2022-09-07T02:07:24.726Z,12.73
2022-09-07T02:10:13.410Z,12.37
2022-09-07T02:12:51.366Z,12.70
2022-09-07T02:15:24.646Z,12.73
2022-09-07T02:18:05.101Z,12.23
2022-09-07T02:20:39.421Z,12.57
2022-09-07T02:23:18.293Z,13.40
2022-09-07T02:26:08.260Z,14.07
2022-09-07T02:28:37.711Z,14.03
2022-09-07T02:31:08.824Z,12.87
2022-09-07T02:33:37.030Z,14.63
2022-09-07T03:00:30.355Z,16.70
2022-09-07T03:03:39.270Z,17.20
2022-09-07T03:06:26.530Z,17.40
2022-09-07T03:08:56.858Z,17.50
2022-09-07T03:11:24.720Z,18.80
2022-09-07T03:13:51.983Z,18.70
2022-09-07T03:16:19.387Z,19.43
2022-09-07T03:18:46.822Z,20.27
2022-09-07T03:21:13.884Z,20.13
2022-09-07T03:23:41.660Z,20.03
2022-09-07T03:26:22.981Z,20.87
2022-09-07T03:28:50.107Z,20.17
2022-09-07T03:31:17.698Z,20.63
2022-09-07T03:33:45.094Z,20.33
2022-09-07T03:36:12.423Z,20.40
2022-09-07T03:38:39.676Z,20.60
2022-09-07T03:41:08.756Z,21.00
2022-09-07T03:43:36.537Z,21.90
2022-09-07T03:46:06.392Z,21.93
2022-09-07T03:48:41.973Z,22.67
2022-09-07T03:51:13.457Z,21.63
2022-09-07T03:53:42.960Z,21.13
2022-09-07T03:56:31.983Z,21.87
2022-09-07T03:58:59.827Z,18.70
2022-09-07T04:01:28.728Z,19.70
2022-09-07T04:04:02.181Z,20.50
2022-09-07T04:06:31.608Z,19.37
2022-09-07T04:09:08.653Z,17.97
2022-09-07T04:11:41.144Z,18.53
2022-09-07T04:14:09.769Z,20.30
2022-09-07T04:16:37.442Z,20.10
2022-09-07T04:24:28.331Z,19.17
2022-09-07T04:26:58.881Z,18.87
2022-09-07T04:29:27.334Z,19.87
2022-09-07T04:31:55.178Z,19.30
2022-09-07T04:34:22.453Z,19.83
2022-09-07T04:36:51.272Z,18.87
2022-09-07T04:39:23.150Z,18.93
2022-09-07T04:58:05.913Z,19.33
2022-09-07T05:00:33.153Z,18.00
2022-09-07T05:03:03.093Z,18.97
2022-09-07T05:05:29.994Z,19.17
2022-09-07T05:07:57.129Z,19.17
2022-09-07T05:10:24.216Z,18.67
2022-09-07T05:12:51.403Z,18.80
2022-09-07T05:15:18.362Z,18.33
2022-09-07T05:17:45.406Z,17.77
2022-09-07T05:20:12.470Z,18.50
2022-09-07T05:22:42.008Z,18.40
2022-09-07T05:25:09.751Z,17.93
2022-09-07T05:27:36.651Z,17.67
2022-09-07T05:30:04.981Z,17.80
2022-09-07T05:32:33.053Z,17.40
2022-09-07T05:34:59.949Z,16.80
2022-09-07T05:37:26.940Z,17.53
2022-09-07T05:39:57.300Z,17.03
2022-09-07T05:42:24.432Z,17.53
2022-09-07T05:44:51.371Z,17.63
2022-09-07T05:47:18.282Z,18.63
2022-09-07T05:49:45.219Z,17.57
2022-09-07T05:52:12.241Z,16.93
2022-09-07T05:54:39.436Z,15.80
2022-09-07T05:57:07.579Z,13.97
2022-09-07T05:59:34.557Z,13.67
2022-09-07T06:02:01.753Z,12.27
2022-09-07T06:04:29.189Z,12.23
2022-09-07T06:07:19.990Z,11.50
2022-09-07T06:12:30.468Z,10.53
2022-09-07T06:14:57.486Z,10.10
2022-09-07T06:17:24.548Z,9.03
2022-09-07T06:19:51.794Z,8.40
2022-09-07T06:22:18.918Z,8.40
2022-09-07T06:24:45.800Z,8.27
2022-09-07T06:27:12.769Z,6.90
2022-09-07T06:29:39.824Z,7.28
2022-09-07T06:34:53.781Z,7.25
2022-09-07T06:37:20.861Z,7.00
2022-09-07T06:39:49.623Z,6.43
2022-09-07T06:42:16.916Z,6.22
2022-09-07T06:44:43.891Z,5.70
2022-09-07T06:47:10.850Z,6.43
2022-09-07T06:49:37.910Z,6.45
2022-09-07T06:52:04.849Z,5.75
2022-09-07T06:57:21.387Z,5.60
2022-09-07T06:59:49.057Z,4.90
2022-09-07T07:02:16.069Z,5.88
2022-09-07T07:04:43.047Z,5.05
2022-09-07T07:07:12.194Z,4.97
2022-09-07T07:09:39.914Z,6.37
2022-09-07T07:12:07.190Z,6.28
2022-09-07T07:14:37.232Z,6.18
2022-09-07T07:17:06.944Z,6.28
2022-09-07T07:19:33.959Z,6.25
2022-09-07T07:24:47.925Z,6.82
2022-09-07T07:27:15.019Z,19.65
2022-09-07T07:29:42.086Z,7.55
2022-09-07T07:32:09.863Z,7.90
2022-09-07T07:34:37.163Z,8.40
2022-09-07T07:37:04.725Z,8.60
2022-09-07T07:42:18.614Z,8.07
2022-09-07T07:44:45.802Z,9.55
2022-09-07T07:47:12.906Z,9.18
2022-09-07T07:49:39.821Z,9.10
2022-09-07T07:54:54.150Z,9.80
2022-09-07T07:57:21.179Z,9.40
2022-09-07T07:59:48.123Z,10.10
2022-09-07T08:02:17.332Z,9.75
2022-09-07T08:04:44.696Z,9.33
2022-09-07T08:07:14.419Z,9.50
2022-09-07T08:09:43.577Z,8.93
2022-09-07T08:12:16.837Z,9.75
2022-09-07T08:14:44.018Z,9.18
2022-09-07T08:17:13.101Z,10.10
2022-09-07T08:19:40.572Z,9.30
2022-09-07T08:22:08.897Z,10.32
2022-09-07T08:24:36.131Z,10.82
2022-09-07T08:27:03.579Z,12.25
2022-09-07T08:29:34.515Z,12.55
2022-09-07T08:32:03.755Z,13.80
2022-09-07T08:34:30.677Z,13.75
2022-09-07T08:36:57.614Z,13.10
2022-09-07T08:39:24.673Z,13.15
2022-09-07T08:42:00.555Z,12.65
2022-09-07T08:44:35.202Z,12.85
2022-09-07T08:47:29.526Z,13.40
2022-09-07T08:50:15.314Z,13.10
2022-09-07T08:53:01.570Z,13.30
2022-09-07T08:55:32.925Z,11.85
2022-09-07T08:58:05.585Z,12.20
2022-09-07T09:00:32.645Z,11.70
2022-09-07T09:06:03.815Z,12.13
2022-09-07T09:08:53.734Z,12.27
2022-09-07T09:12:12.157Z,11.80
2022-09-07T09:14:48.061Z,11.30
2022-09-07T09:17:44.469Z,12.30
2022-09-07T09:20:30.963Z,11.95
2022-09-07T09:23:03.145Z,12.82
2022-09-07T09:25:36.793Z,11.40
2022-09-07T09:28:03.984Z,11.77
2022-09-07T09:30:31.310Z,11.60
2022-09-07T09:33:20.464Z,11.05
2022-09-07T09:35:51.109Z,10.10
2022-09-07T09:38:41.948Z,9.60
2022-09-07T09:41:23.841Z,8.52
2022-09-07T09:43:55.995Z,9.10
2022-09-07T09:46:35.359Z,8.32
2022-09-07T09:49:15.579Z,7.10
2022-09-07T09:54:40.405Z,6.93
2022-09-07T09:57:12.345Z,6.60
2022-09-07T10:00:04.018Z,7.13
2022-09-07T10:05:41.586Z,7.55
2022-09-07T10:08:25.334Z,7.43
2022-09-07T10:11:18.142Z,8.15
2022-09-07T10:13:55.910Z,7.50
2022-09-07T10:16:38.609Z,7.90
2022-09-07T10:19:05.475Z,8.43
2022-09-07T10:21:33.090Z,7.60
2022-09-07T10:24:07.461Z,7.95
2022-09-07T10:26:38.363Z,7.55
2022-09-07T10:29:17.663Z,8.00
2022-09-07T10:32:20.123Z,8.20
2022-09-07T10:34:58.694Z,9.23
2022-09-07T10:37:44.158Z,8.90
2022-09-07T10:40:22.071Z,10.13
2022-09-07T10:46:12.398Z,10.77
2022-09-07T10:49:04.593Z,10.52
2022-09-07T10:51:54.373Z,9.25
2022-09-07T10:54:41.321Z,10.63
2022-09-07T10:57:17.155Z,10.25
2022-09-07T11:00:14.474Z,9.68
2022-09-07T11:03:30.113Z,10.35
2022-09-07T11:06:10.701Z,10.15
2022-09-07T11:09:18.473Z,11.02
2022-09-07T11:12:06.216Z,11.45
2022-09-07T11:14:48.135Z,13.05
2022-09-07T11:17:21.025Z,14.38
2022-09-07T11:20:08.251Z,11.73
2022-09-07T11:22:45.442Z,11.20
2022-09-07T11:25:40.459Z,11.27
2022-09-07T11:28:29.630Z,10.70
2022-09-07T11:31:10.784Z,10.05
2022-09-07T11:36:56.660Z,11.40
2022-09-07T11:39:41.637Z,11.15
2022-09-07T11:45:31.654Z,10.20
2022-09-07T11:48:04.049Z,10.32
2022-09-07T11:50:36.576Z,11.05
2022-09-07T11:53:07.211Z,11.02
2022-09-07T11:55:42.899Z,11.07
2022-09-07T11:58:30.441Z,10.82
2022-09-07T12:46:54.285Z,11.00
2022-09-07T12:49:42.448Z,10.77
2022-09-07T12:52:27.941Z,11.70
2022-09-07T12:55:16.292Z,11.07
2022-09-07T12:57:48.038Z,11.07
2022-09-07T13:11:34.476Z,11.65
2022-09-07T13:14:09.425Z,10.65
2022-09-07T13:19:48.226Z,9.93
2022-09-07T13:22:33.877Z,10.15
2022-09-07T13:25:03.765Z,10.05
2022-09-07T13:27:52.871Z,10.93
2022-09-07T13:30:32.755Z,10.52
2022-09-07T13:33:24.856Z,11.52
2022-09-07T13:36:03.307Z,11.38
2022-09-07T13:38:32.515Z,11.35
2022-09-07T13:41:07.652Z,10.63
2022-09-07T13:43:36.222Z,11.13
2022-09-07T13:46:13.382Z,12.63
2022-09-07T13:49:12.456Z,10.50
2022-09-07T13:52:02.822Z,10.48
2022-09-07T13:54:44.867Z,11.40
2022-09-07T13:57:32.918Z,11.45
2022-09-07T13:59:59.985Z,10.73
2022-09-07T14:02:34.334Z,10.07
2022-09-07T14:05:01.913Z,11.20
2022-09-07T14:07:30.940Z,10.50
2022-09-07T14:10:07.855Z,11.48
2022-09-07T14:12:47.855Z,12.32
2022-09-07T14:15:17.895Z,11.00
2022-09-07T14:17:46.525Z,12.07
2022-09-07T14:20:15.599Z,25.95
2022-09-07T14:22:43.669Z,10.95
2022-09-07T14:25:22.613Z,12.57
2022-09-07T14:27:51.056Z,12.30
2022-09-07T14:30:28.559Z,11.65
2022-09-07T14:32:57.033Z,11.80
2022-09-07T14:35:28.572Z,11.00
2022-09-07T14:38:01.203Z,10.75
2022-09-07T14:40:28.317Z,10.98
2022-09-07T14:42:56.440Z,11.23
2022-09-07T14:45:23.448Z,11.75
2022-09-07T14:47:53.040Z,12.65
2022-09-07T14:50:39.191Z,11.68
2022-09-07T14:56:09.494Z,11.75
2022-09-07T14:58:36.512Z,12.60
2022-09-07T15:04:16.374Z,12.25
2022-09-07T15:09:36.801Z,12.77
2022-09-07T15:12:27.169Z,11.90
2022-09-07T15:15:10.735Z,12.45
2022-09-07T15:17:45.277Z,11.07
2022-09-07T15:20:51.305Z,11.13
2022-09-07T15:23:19.622Z,10.40
2022-09-07T15:25:53.606Z,10.30
2022-09-07T15:34:16.217Z,11.45
2022-09-07T15:36:48.724Z,11.23
2022-09-07T15:39:24.967Z,11.23
2022-09-07T15:41:52.555Z,10.45
2022-09-07T15:44:24.920Z,9.80
2022-09-07T15:49:47.351Z,9.20
2022-09-07T15:52:17.597Z,10.00
2022-09-07T15:54:45.043Z,11.30
2022-09-07T16:00:03.614Z,9.70
2022-09-07T16:08:32.660Z,6.63
2022-09-07T16:11:23.844Z,6.78
2022-09-07T16:14:01.699Z,7.43
2022-09-07T16:19:29.751Z,7.43
2022-09-07T16:21:57.902Z,6.88
2022-09-07T16:24:29.750Z,7.38
2022-09-07T16:27:01.899Z,6.75
2022-09-07T16:29:30.277Z,6.50
2022-09-07T16:34:47.825Z,7.43
2022-09-07T16:40:17.242Z,6.90
2022-09-07T17:15:56.720Z,9.40
2022-09-07T17:27:13.196Z,7.35
2022-09-07T17:32:25.489Z,7.75
2022-09-07T17:34:53.283Z,8.65
2022-09-07T18:04:14.911Z,9.32
2022-09-07T20:56:12.327Z,16.80
2022-09-07T20:58:48.047Z,15.30
2022-09-07T21:01:27.558Z,14.70
2022-09-07T21:04:00.926Z,14.50
2022-09-07T21:06:40.788Z,15.43
2022-09-07T21:09:23.349Z,16.07
2022-09-07T21:11:55.138Z,16.67
2022-09-07T21:14:30.359Z,16.03
2022-09-07T21:16:58.412Z,17.03
2022-09-07T21:19:28.649Z,17.40
2022-09-07T21:21:57.260Z,15.47
2022-09-07T21:30:23.150Z,16.50
2022-09-07T21:38:33.490Z,17.03
2022-09-07T21:41:06.445Z,17.80
2022-09-07T22:21:59.020Z,20.70
2022-09-07T22:37:02.485Z,18.60
2022-09-07T22:45:01.150Z,18.13
2022-09-07T22:47:43.230Z,18.40
2022-09-07T22:50:24.168Z,21.10
2022-09-07T23:16:26.747Z,25.23
2022-09-07T23:19:16.301Z,25.87
2022-09-07T23:27:59.790Z,24.17
2022-09-07T23:33:14.697Z,22.57
2022-09-07T23:46:49.872Z,22.67
2022-09-07T23:49:16.992Z,22.20
2022-09-07T23:51:44.382Z,20.87
2022-09-07T23:54:14.503Z,21.43
2022-09-07T23:56:41.755Z,19.70
2022-09-07T23:59:11.874Z,20.27
